createdAt,value
2022-12-09T00:04:02.366Z,4.43
2022-12-09T00:09:07.515Z,6.17
2022-12-09T00:14:12.547Z,4.67
2022-12-09T00:19:15.927Z,4.83
2022-12-09T00:24:20.864Z,5.13
2022-12-09T00:29:24.156Z,4.60
2022-12-09T00:34:27.524Z,5.17
2022-12-09T00:39:32.255Z,4.40
2022-12-09T00:44:35.689Z,5.03
2022-12-09T00:49:39.450Z,4.50
2022-12-09T00:54:44.318Z,4.73
2022-12-09T00:59:47.703Z,4.47
2022-12-09T01:04:52.691Z,3.90
2022-12-09T01:09:57.722Z,3.70
2022-12-09T01:15:01.252Z,2.90
2022-12-09T01:20:05.548Z,3.00
2022-12-09T01:25:11.112Z,2.77
2022-12-09T01:30:15.950Z,2.73
2022-12-09T01:35:19.436Z,3.00
2022-12-09T01:40:24.313Z,2.80
2022-12-09T01:45:44.212Z,3.13
2022-12-09T01:50:53.524Z,2.83
2022-12-09T01:56:03.612Z,2.53
2022-12-09T02:01:08.495Z,2.60
2022-12-09T02:06:13.456Z,2.63
2022-12-09T02:11:30.127Z,2.93
2022-12-09T02:16:42.055Z,2.80
2022-12-09T02:21:54.997Z,2.97
2022-12-09T02:27:05.612Z,2.33
2022-12-09T02:32:39.172Z,2.13
2022-12-09T02:37:55.897Z,2.60
2022-12-09T02:43:03.363Z,2.33
2022-12-09T02:48:09.482Z,2.97
2022-12-09T02:53:15.879Z,2.90
2022-12-09T02:58:20.318Z,2.93
2022-12-09T03:03:24.478Z,3.87
2022-12-09T03:08:38.920Z,3.93
2022-12-09T03:13:50.631Z,3.57
2022-12-09T03:19:00.783Z,3.93
2022-12-09T03:24:09.781Z,4.10
2022-12-09T03:29:18.309Z,4.83
2022-12-09T03:34:26.860Z,4.00
2022-12-09T03:39:36.469Z,4.57
2022-12-09T03:44:43.857Z,4.13
2022-12-09T03:49:47.220Z,3.73
2022-12-09T03:54:56.756Z,3.83
2022-12-09T04:00:02.874Z,3.67
2022-12-09T04:05:16.158Z,3.50
2022-12-09T04:10:21.178Z,3.20
2022-12-09T04:15:24.452Z,3.67
2022-12-09T04:20:27.989Z,3.70
2022-12-09T04:25:32.830Z,3.10
2022-12-09T04:30:36.656Z,3.70
2022-12-09T04:35:40.042Z,3.13
2022-12-09T04:40:44.849Z,3.13
2022-12-09T04:45:48.538Z,3.20
2022-12-09T04:50:52.516Z,4.00
2022-12-09T04:56:02.386Z,3.13
2022-12-09T05:01:08.175Z,3.10
2022-12-09T05:06:14.194Z,2.93
2022-12-09T05:11:20.053Z,2.97
2022-12-09T05:16:24.318Z,3.27
2022-12-09T05:21:28.102Z,3.10
2022-12-09T05:26:32.857Z,3.70
2022-12-09T05:31:36.548Z,3.73
2022-12-09T05:36:40.548Z,3.33
2022-12-09T05:41:47.311Z,3.33
2022-12-09T05:46:50.759Z,2.90
2022-12-09T05:51:55.404Z,3.70
2022-12-09T05:57:01.446Z,3.83
2022-12-09T06:02:09.736Z,3.57
2022-12-09T06:07:14.143Z,3.27
2022-12-09T06:12:19.313Z,3.53
2022-12-09T06:17:22.940Z,3.57
2022-12-09T06:22:26.426Z,4.23
2022-12-09T06:27:31.424Z,3.37
2022-12-09T06:32:35.168Z,3.93
2022-12-09T06:37:38.658Z,3.60
2022-12-09T06:42:43.332Z,3.73
2022-12-09T06:47:47.393Z,3.67
2022-12-09T06:52:50.878Z,4.07
2022-12-09T06:57:55.746Z,3.63
2022-12-09T07:02:59.462Z,3.77
2022-12-09T07:08:03.690Z,3.57
2022-12-09T07:13:08.604Z,3.43
2022-12-09T07:18:12.100Z,3.33
2022-12-09T07:23:16.625Z,4.03
2022-12-09T07:28:21.586Z,3.80
2022-12-09T07:33:25.017Z,3.93
2022-12-09T07:38:28.654Z,3.90
2022-12-09T07:43:34.214Z,3.97
2022-12-09T07:48:37.638Z,4.73
2022-12-09T07:53:41.926Z,3.73
2022-12-09T07:58:48.941Z,4.57
2022-12-09T08:03:53.359Z,4.13
2022-12-09T08:08:59.641Z,4.00
2022-12-09T08:14:12.198Z,4.60
2022-12-09T08:19:16.945Z,3.73
2022-12-09T08:24:21.103Z,4.47
2022-12-09T08:29:25.922Z,4.10
2022-12-09T08:34:29.589Z,4.07
2022-12-09T08:39:33.779Z,4.97
2022-12-09T08:44:39.409Z,3.80
2022-12-09T08:49:42.965Z,4.13
2022-12-09T08:54:46.894Z,4.70
2022-12-09T08:59:51.864Z,5.00
2022-12-09T09:04:55.676Z,5.17
2022-12-09T09:10:01.482Z,4.60
2022-12-09T09:15:08.970Z,4.10
2022-12-09T09:20:13.546Z,5.43
2022-12-09T09:25:17.696Z,4.53
2022-12-09T09:30:22.731Z,4.53
2022-12-09T09:35:26.616Z,5.50
2022-12-09T09:40:31.128Z,6.10
2022-12-09T09:45:36.168Z,4.20
2022-12-09T09:50:45.562Z,5.03
2022-12-09T09:55:54.024Z,5.47
2022-12-09T10:01:04.257Z,5.20
2022-12-09T10:06:16.817Z,4.80
2022-12-09T10:11:28.144Z,5.50
2022-12-09T10:16:42.453Z,4.23
2022-12-09T10:21:47.469Z,3.97
2022-12-09T10:27:00.837Z,5.13
2022-12-09T10:32:05.933Z,3.70
2022-12-09T10:37:23.733Z,3.17
2022-12-09T10:42:45.561Z,3.63
2022-12-09T10:47:53.941Z,3.90
2022-12-09T10:52:58.626Z,4.23
2022-12-09T10:58:13.216Z,4.60
2022-12-09T11:03:29.724Z,3.33
2022-12-09T11:08:33.662Z,3.57
2022-12-09T11:13:43.341Z,3.20
2022-12-09T11:18:49.376Z,3.13
2022-12-09T11:24:02.585Z,3.03
2022-12-09T11:29:15.864Z,2.70
2022-12-09T11:34:24.233Z,2.87
2022-12-09T11:39:30.192Z,2.63
2022-12-09T11:44:35.174Z,2.70
2022-12-09T11:49:49.513Z,3.43
2022-12-09T11:54:58.982Z,2.77
2022-12-09T12:00:06.921Z,2.47
2022-12-09T12:05:22.468Z,2.90
2022-12-09T12:10:30.674Z,2.63
2022-12-09T12:15:41.934Z,2.93
2022-12-09T12:21:13.599Z,3.30
2022-12-09T12:26:23.114Z,2.67
2022-12-09T12:31:43.735Z,3.07
2022-12-09T12:37:08.031Z,2.30
2022-12-09T12:42:24.010Z,2.77
2022-12-09T12:47:34.771Z,2.90
2022-12-09T12:52:57.347Z,2.43
2022-12-09T12:58:11.344Z,2.57
2022-12-09T13:03:23.313Z,2.63
2022-12-09T13:08:36.173Z,2.30
2022-12-09T13:13:45.754Z,2.70
2022-12-09T13:18:50.352Z,2.70
2022-12-09T13:24:04.258Z,2.97
2022-12-09T13:29:17.631Z,2.10
2022-12-09T13:34:30.213Z,1.93
2022-12-09T13:39:58.350Z,2.20
2022-12-09T13:45:07.462Z,1.97
2022-12-09T13:50:25.779Z,1.60
2022-12-09T13:55:49.011Z,1.57
2022-12-09T14:01:07.896Z,1.57
2022-12-09T14:06:23.099Z,1.70
2022-12-09T14:11:48.708Z,1.83
2022-12-09T14:16:53.232Z,2.03
2022-12-09T14:22:29.943Z,1.90
2022-12-09T14:27:34.677Z,1.33
2022-12-09T14:32:54.405Z,1.33
2022-12-09T14:38:18.471Z,1.60
2022-12-09T14:43:53.011Z,1.30
2022-12-09T14:48:59.392Z,1.17
2022-12-09T14:54:05.946Z,1.33
2022-12-09T14:59:18.828Z,1.10
2022-12-09T15:04:30.719Z,1.57
2022-12-09T15:09:34.327Z,1.07
2022-12-09T15:14:40.353Z,1.03
2022-12-09T15:20:00.453Z,1.20
2022-12-09T15:25:05.113Z,1.17
2022-12-09T15:30:28.781Z,1.03
2022-12-09T15:35:34.480Z,1.07
2022-12-09T15:40:59.755Z,1.13
2022-12-09T15:46:05.977Z,0.97
2022-12-09T15:51:17.279Z,1.10
2022-12-09T15:56:27.148Z,1.30
2022-12-09T16:01:37.210Z,1.40
2022-12-09T16:06:41.703Z,1.17
2022-12-09T16:11:48.542Z,1.50
2022-12-09T16:16:58.915Z,1.43
2022-12-09T16:22:07.238Z,1.70
2022-12-09T16:27:18.282Z,1.97
2022-12-09T16:32:28.171Z,1.90
2022-12-09T16:37:40.009Z,1.80
2022-12-09T16:42:45.673Z,1.83
2022-12-09T16:47:55.633Z,1.90
2022-12-09T16:53:02.048Z,2.23
2022-12-09T16:58:06.960Z,2.30
2022-12-09T17:03:21.710Z,1.93
2022-12-09T17:08:26.454Z,1.73
2022-12-09T17:13:30.388Z,2.33
2022-12-09T17:18:38.069Z,2.20
2022-12-09T17:23:43.795Z,1.87
2022-12-09T17:28:50.480Z,2.27
2022-12-09T17:33:59.814Z,2.03
2022-12-09T17:39:07.166Z,2.00
2022-12-09T17:44:12.151Z,2.13
2022-12-09T17:49:19.053Z,2.43
2022-12-09T17:54:24.270Z,1.77
2022-12-09T17:59:29.687Z,1.97
2022-12-09T18:04:34.844Z,2.27
2022-12-09T18:09:40.579Z,2.37
2022-12-09T18:14:44.127Z,2.47
2022-12-09T18:19:49.670Z,2.10
2022-12-09T18:24:53.227Z,2.37
2022-12-09T18:29:58.500Z,2.10
2022-12-09T18:35:07.460Z,2.30
2022-12-09T18:40:13.018Z,2.63
2022-12-09T18:45:17.998Z,2.40
2022-12-09T18:50:23.354Z,2.47
2022-12-09T18:55:27.899Z,5.77
2022-12-09T19:00:32.956Z,3.37
2022-12-09T19:05:44.163Z,3.07
2022-12-09T19:10:56.409Z,3.30
2022-12-09T19:16:06.272Z,2.57
2022-12-09T19:21:18.541Z,2.30
2022-12-09T19:26:26.889Z,2.10
2022-12-09T19:31:34.382Z,2.03
2022-12-09T19:36:42.623Z,1.40
2022-12-09T19:41:48.320Z,1.90
2022-12-09T19:46:54.714Z,1.80
2022-12-09T19:52:06.658Z,1.67
2022-12-09T19:57:10.865Z,1.60
2022-12-09T20:02:17.417Z,1.47
2022-12-09T20:07:23.665Z,1.33
2022-12-09T20:12:32.161Z,1.60
2022-12-09T20:17:37.570Z,1.37
2022-12-09T20:22:45.247Z,1.47
2022-12-09T20:27:49.612Z,1.40
2022-12-09T20:32:54.834Z,1.80
2022-12-09T20:38:01.491Z,1.23
2022-12-09T20:43:13.018Z,1.30
2022-12-09T20:48:18.032Z,1.40
2022-12-09T20:53:25.662Z,1.30
2022-12-09T20:58:30.073Z,1.40
2022-12-09T21:03:34.652Z,1.53
2022-12-09T21:08:41.257Z,1.50
2022-12-09T21:13:47.762Z,1.20
2022-12-09T21:18:54.768Z,1.10
2022-12-09T21:24:04.063Z,1.27
2022-12-09T21:29:10.650Z,1.20
2022-12-09T21:34:14.838Z,1.00
2022-12-09T21:39:20.688Z,0.90
2022-12-09T21:44:25.864Z,1.10
2022-12-09T21:49:30.897Z,1.00
2022-12-09T21:54:35.882Z,1.13
2022-12-09T21:59:39.391Z,1.30
2022-12-09T22:04:43.445Z,1.37
2022-12-09T22:09:50.933Z,1.47
2022-12-09T22:14:55.962Z,1.27
2022-12-09T22:20:33.336Z,1.50
2022-12-09T22:25:24.598Z,1.87
2022-12-09T22:30:28.173Z,1.30
2022-12-09T22:35:31.546Z,1.30
2022-12-09T22:40:37.089Z,1.10
2022-12-09T22:45:40.385Z,1.40
2022-12-09T22:50:43.768Z,1.40
2022-12-09T22:55:49.298Z,2.17
2022-12-09T23:00:52.855Z,2.10
2022-12-09T23:05:56.222Z,1.67
2022-12-09T23:11:03.576Z,1.47
2022-12-09T23:16:09.350Z,1.80
2022-12-09T23:21:14.758Z,2.10
2022-12-09T23:26:21.065Z,1.63
2022-12-09T23:31:26.451Z,1.60
2022-12-09T23:36:32.065Z,1.83
2022-12-09T23:41:37.480Z,1.50
2022-12-09T23:46:41.174Z,1.57
2022-12-09T23:51:44.970Z,1.73
2022-12-09T23:56:50.899Z,1.47
